sensor_id;sensor_type;location;lat;lon;timestamp;P1;durP1;ratioP1;P2;durP2;ratioP2
7001;SDS011;3541;53.230;10.518;2023-04-24T00:01:23;4.07;;;2.75;;
7001;SDS011;3541;53.230;10.518;2023-04-24T00:03:49;4.40;;;3.20;;
7001;SDS011;3541;53.230;10.518;2023-04-24T00:06:16;3.65;;;3.35;;
7001;SDS011;3541;53.230;10.518;2023-04-24T00:08:44;3.95;;;3.20;;
7001;SDS011;3541;53.230;10.518;2023-04-24T00:11:10;3.45;;;3.15;;
7001;SDS011;3541;53.230;10.518;2023-04-24T00:13:37;3.38;;;3.00;;
7001;SDS011;3541;53.230;10.518;2023-04-24T00:16:04;3.63;;;2.90;;
7001;SDS011;3541;53.230;10.518;2023-04-24T00:18:31;6.32;;;3.38;;
7001;SDS011;3541;53.230;10.518;2023-04-24T00:20:58;3.60;;;2.97;;
7001;SDS011;3541;53.230;10.518;2023-04-24T00:23:24;3.67;;;3.30;;
7001;SDS011;3541;53.230;10.518;2023-04-24T00:25:52;3.60;;;3.20;;
7001;SDS011;3541;53.230;10.518;2023-04-24T00:28:19;3.10;;;2.80;;
7001;SDS011;3541;53.230;10.518;2023-04-24T00:30:45;4.13;;;3.73;;
7001;SDS011;3541;53.230;10.518;2023-04-24T00:33:12;3.40;;;3.10;;
7001;SDS011;3541;53.230;10.518;2023-04-24T00:35:38;3.45;;;3.15;;
7001;SDS011;3541;53.230;10.518;2023-04-24T00:38:05;3.22;;;2.90;;
7001;SDS011;3541;53.230;10.518;2023-04-24T00:40:32;3.92;;;3.20;;
7001;SDS011;3541;53.230;10.518;2023-04-24T00:43:00;3.28;;;2.97;;
7001;SDS011;3541;53.230;10.518;2023-04-24T00:45:27;3.92;;;3.00;;
7001;SDS011;3541;53.230;10.518;2023-04-24T00:47:53;6.23;;;3.10;;
7001;SDS011;3541;53.230;10.518;2023-04-24T00:50:20;3.80;;;3.42;;
7001;SDS011;3541;53.230;10.518;2023-04-24T00:52:47;4.00;;;3.10;;
7001;SDS011;3541;53.230;10.518;2023-04-24T00:55:14;3.88;;;3.47;;
7001;SDS011;3541;53.230;10.518;2023-04-24T00:57:41;5.15;;;3.28;;
7001;SDS011;3541;53.230;10.518;2023-04-24T01:00:10;3.47;;;3.17;;
7001;SDS011;3541;53.230;10.518;2023-04-24T01:02:38;3.22;;;2.92;;
7001;SDS011;3541;53.230;10.518;2023-04-24T01:05:09;3.70;;;2.93;;
7001;SDS011;3541;53.230;10.518;2023-04-24T01:07:36;3.53;;;3.10;;
7001;SDS011;3541;53.230;10.518;2023-04-24T01:10:04;3.83;;;2.67;;
7001;SDS011;3541;53.230;10.518;2023-04-24T01:12:32;3.10;;;2.80;;
7001;SDS011;3541;53.230;10.518;2023-04-24T01:14:59;3.95;;;3.30;;
7001;SDS011;3541;53.230;10.518;2023-04-24T01:17:27;3.50;;;2.83;;
7001;SDS011;3541;53.230;10.518;2023-04-24T01:19:54;2.80;;;2.60;;
7001;SDS011;3541;53.230;10.518;2023-04-24T01:22:22;3.60;;;3.10;;
7001;SDS011;3541;53.230;10.518;2023-04-24T01:24:49;2.78;;;2.50;;
7001;SDS011;3541;53.230;10.518;2023-04-24T01:27:17;2.90;;;2.60;;
7001;SDS011;3541;53.230;10.518;2023-04-24T01:29:43;2.67;;;2.45;;
7001;SDS011;3541;53.230;10.518;2023-04-24T01:32:10;2.67;;;2.30;;
7001;SDS011;3541;53.230;10.518;2023-04-24T01:34:37;2.40;;;2.20;;
7001;SDS011;3541;53.230;10.518;2023-04-24T01:37:04;4.07;;;2.73;;
7001;SDS011;3541;53.230;10.518;2023-04-24T01:39:32;3.57;;;2.50;;
7001;SDS011;3541;53.230;10.518;2023-04-24T01:41:59;4.57;;;2.80;;
7001;SDS011;3541;53.230;10.518;2023-04-24T01:44:27;3.73;;;2.27;;
7001;SDS011;3541;53.230;10.518;2023-04-24T01:46:54;2.87;;;2.00;;
7001;SDS011;3541;53.230;10.518;2023-04-24T01:49:21;2.43;;;2.23;;
7001;SDS011;3541;53.230;10.518;2023-04-24T01:51:48;2.27;;;2.07;;
7001;SDS011;3541;53.230;10.518;2023-04-24T01:54:14;2.93;;;2.23;;
7001;SDS011;3541;53.230;10.518;2023-04-24T01:56:42;3.47;;;2.13;;
7001;SDS011;3541;53.230;10.518;2023-04-24T01:59:09;3.20;;;2.13;;
7001;SDS011;3541;53.230;10.518;2023-04-24T02:01:36;3.60;;;1.87;;
7001;SDS011;3541;53.230;10.518;2023-04-24T02:04:04;2.27;;;2.07;;
7001;SDS011;3541;53.230;10.518;2023-04-24T02:06:31;2.13;;;1.93;;
7001;SDS011;3541;53.230;10.518;2023-04-24T02:08:57;3.43;;;1.70;;
7001;SDS011;3541;53.230;10.518;2023-04-24T02:11:24;2.50;;;1.90;;
7001;SDS011;3541;53.230;10.518;2023-04-24T02:13:53;3.53;;;2.10;;
7001;SDS011;3541;53.230;10.518;2023-04-24T02:16:19;2.83;;;1.90;;
7001;SDS011;3541;53.230;10.518;2023-04-24T02:18:46;2.20;;;2.00;;
7001;SDS011;3541;53.230;10.518;2023-04-24T02:21:12;2.97;;;2.07;;
7001;SDS011;3541;53.230;10.518;2023-04-24T02:23:39;2.30;;;2.10;;
7001;SDS011;3541;53.230;10.518;2023-04-24T02:26:06;2.37;;;2.00;;
7001;SDS011;3541;53.230;10.518;2023-04-24T02:28:32;2.30;;;2.10;;
7001;SDS011;3541;53.230;10.518;2023-04-24T02:31:00;1.97;;;1.83;;
7001;SDS011;3541;53.230;10.518;2023-04-24T02:33:27;3.47;;;2.17;;
7001;SDS011;3541;53.230;10.518;2023-04-24T02:35:53;2.93;;;2.20;;
7001;SDS011;3541;53.230;10.518;2023-04-24T02:38:20;2.40;;;1.80;;
7001;SDS011;3541;53.230;10.518;2023-04-24T02:40:46;2.30;;;2.05;;
7001;SDS011;3541;53.230;10.518;2023-04-24T02:43:13;2.80;;;1.77;;
7001;SDS011;3541;53.230;10.518;2023-04-24T02:45:39;2.10;;;1.73;;
7001;SDS011;3541;53.230;10.518;2023-04-24T02:48:07;2.00;;;1.73;;
7001;SDS011;3541;53.230;10.518;2023-04-24T02:50:34;1.87;;;1.60;;
7001;SDS011;3541;53.230;10.518;2023-04-24T02:53:00;1.70;;;1.57;;
7001;SDS011;3541;53.230;10.518;2023-04-24T02:55:27;1.83;;;1.60;;
7001;SDS011;3541;53.230;10.518;2023-04-24T02:57:54;2.53;;;1.60;;
7001;SDS011;3541;53.230;10.518;2023-04-24T03:00:20;2.00;;;1.50;;
7001;SDS011;3541;53.230;10.518;2023-04-24T03:02:48;1.73;;;1.60;;
7001;SDS011;3541;53.230;10.518;2023-04-24T03:05:16;1.87;;;1.40;;
7001;SDS011;3541;53.230;10.518;2023-04-24T03:07:43;1.47;;;1.33;;
7001;SDS011;3541;53.230;10.518;2023-04-24T03:10:10;1.43;;;1.33;;
7001;SDS011;3541;53.230;10.518;2023-04-24T03:12:37;1.50;;;1.40;;
7001;SDS011;3541;53.230;10.518;2023-04-24T03:15:03;1.50;;;1.30;;
7001;SDS011;3541;53.230;10.518;2023-04-24T03:17:30;1.70;;;1.50;;
7001;SDS011;3541;53.230;10.518;2023-04-24T03:19:57;1.40;;;1.30;;
7001;SDS011;3541;53.230;10.518;2023-04-24T03:22:25;2.20;;;1.10;;
7001;SDS011;3541;53.230;10.518;2023-04-24T03:24:52;1.40;;;1.30;;
7001;SDS011;3541;53.230;10.518;2023-04-24T03:27:19;2.30;;;1.20;;
7001;SDS011;3541;53.230;10.518;2023-04-24T03:29:46;2.20;;;1.53;;
7001;SDS011;3541;53.230;10.518;2023-04-24T03:32:12;1.30;;;1.20;;
7001;SDS011;3541;53.230;10.518;2023-04-24T03:34:39;2.43;;;1.30;;
7001;SDS011;3541;53.230;10.518;2023-04-24T03:37:06;1.67;;;1.40;;
7001;SDS011;3541;53.230;10.518;2023-04-24T03:39:34;1.20;;;1.10;;
7001;SDS011;3541;53.230;10.518;2023-04-24T03:42:00;1.67;;;1.40;;
7001;SDS011;3541;53.230;10.518;2023-04-24T03:44:27;2.30;;;1.30;;
7001;SDS011;3541;53.230;10.518;2023-04-24T03:46:54;2.50;;;1.30;;
7001;SDS011;3541;53.230;10.518;2023-04-24T03:49:20;1.40;;;1.30;;
7001;SDS011;3541;53.230;10.518;2023-04-24T03:51:47;1.33;;;1.23;;
7001;SDS011;3541;53.230;10.518;2023-04-24T03:54:13;1.70;;;1.20;;
7001;SDS011;3541;53.230;10.518;2023-04-24T03:56:41;1.10;;;1.00;;
7001;SDS011;3541;53.230;10.518;2023-04-24T03:59:08;1.20;;;1.10;;
7001;SDS011;3541;53.230;10.518;2023-04-24T04:01:34;1.60;;;1.20;;
7001;SDS011;3541;53.230;10.518;2023-04-24T04:04:02;2.73;;;1.20;;
7001;SDS011;3541;53.230;10.518;2023-04-24T04:06:28;1.33;;;1.20;;
7001;SDS011;3541;53.230;10.518;2023-04-24T04:08:56;1.30;;;1.20;;
7001;SDS011;3541;53.230;10.518;2023-04-24T04:11:23;1.10;;;1.00;;
7001;SDS011;3541;53.230;10.518;2023-04-24T04:13:51;1.40;;;1.10;;
7001;SDS011;3541;53.230;10.518;2023-04-24T04:16:18;1.50;;;1.40;;
7001;SDS011;3541;53.230;10.518;2023-04-24T04:18:44;1.87;;;1.27;;
7001;SDS011;3541;53.230;10.518;2023-04-24T04:21:11;3.03;;;1.57;;
7001;SDS011;3541;53.230;10.518;2023-04-24T04:23:38;2.10;;;1.90;;
7001;SDS011;3541;53.230;10.518;2023-04-24T04:26:04;1.50;;;1.40;;
7001;SDS011;3541;53.230;10.518;2023-04-24T04:28:32;1.40;;;1.30;;
7001;SDS011;3541;53.230;10.518;2023-04-24T04:31:01;1.93;;;1.20;;
7001;SDS011;3541;53.230;10.518;2023-04-24T04:33:27;1.23;;;1.13;;
7001;SDS011;3541;53.230;10.518;2023-04-24T04:35:54;1.20;;;1.10;;
7001;SDS011;3541;53.230;10.518;2023-04-24T04:38:21;1.17;;;1.07;;
7001;SDS011;3541;53.230;10.518;2023-04-24T04:40:48;1.63;;;1.23;;
7001;SDS011;3541;53.230;10.518;2023-04-24T04:43:15;1.20;;;1.10;;
7001;SDS011;3541;53.230;10.518;2023-04-24T04:45:41;1.20;;;1.13;;
7001;SDS011;3541;53.230;10.518;2023-04-24T04:48:11;1.30;;;1.20;;
7001;SDS011;3541;53.230;10.518;2023-04-24T04:50:38;1.27;;;1.17;;
7001;SDS011;3541;53.230;10.518;2023-04-24T04:53:05;1.37;;;1.20;;
7001;SDS011;3541;53.230;10.518;2023-04-24T04:55:31;1.10;;;1.00;;
7001;SDS011;3541;53.230;10.518;2023-04-24T04:57:58;1.60;;;1.10;;
7001;SDS011;3541;53.230;10.518;2023-04-24T05:00:25;1.23;;;1.13;;
7001;SDS011;3541;53.230;10.518;2023-04-24T05:02:53;1.50;;;1.40;;
7001;SDS011;3541;53.230;10.518;2023-04-24T05:05:21;1.73;;;1.07;;
7001;SDS011;3541;53.230;10.518;2023-04-24T05:07:48;2.33;;;1.40;;
7001;SDS011;3541;53.230;10.518;2023-04-24T05:10:14;2.30;;;1.20;;
7001;SDS011;3541;53.230;10.518;2023-04-24T05:12:41;2.30;;;2.10;;
7001;SDS011;3541;53.230;10.518;2023-04-24T05:15:08;2.33;;;1.53;;
7001;SDS011;3541;53.230;10.518;2023-04-24T05:17:34;3.10;;;2.70;;
7001;SDS011;3541;53.230;10.518;2023-04-24T05:20:01;3.53;;;1.20;;
7001;SDS011;3541;53.230;10.518;2023-04-24T05:22:31;2.13;;;1.20;;
7001;SDS011;3541;53.230;10.518;2023-04-24T05:24:58;1.40;;;1.30;;
7001;SDS011;3541;53.230;10.518;2023-04-24T05:27:24;1.33;;;1.23;;
7001;SDS011;3541;53.230;10.518;2023-04-24T05:29:51;1.90;;;1.40;;
7001;SDS011;3541;53.230;10.518;2023-04-24T05:32:17;1.50;;;1.40;;
7001;SDS011;3541;53.230;10.518;2023-04-24T05:34:44;1.90;;;1.67;;
7001;SDS011;3541;53.230;10.518;2023-04-24T05:37:11;1.40;;;1.30;;
7001;SDS011;3541;53.230;10.518;2023-04-24T05:39:39;2.30;;;1.20;;
7001;SDS011;3541;53.230;10.518;2023-04-24T05:42:06;1.60;;;1.50;;
7001;SDS011;3541;53.230;10.518;2023-04-24T05:44:33;1.77;;;1.40;;
7001;SDS011;3541;53.230;10.518;2023-04-24T05:46:59;1.47;;;1.37;;
7001;SDS011;3541;53.230;10.518;2023-04-24T05:49:26;1.40;;;1.30;;
7001;SDS011;3541;53.230;10.518;2023-04-24T05:51:53;1.77;;;1.30;;
7001;SDS011;3541;53.230;10.518;2023-04-24T05:54:19;2.23;;;1.30;;
7001;SDS011;3541;53.230;10.518;2023-04-24T05:56:47;1.57;;;1.30;;
7001;SDS011;3541;53.230;10.518;2023-04-24T05:59:15;1.23;;;1.13;;
7001;SDS011;3541;53.230;10.518;2023-04-24T06:01:41;1.43;;;1.10;;
7001;SDS011;3541;53.230;10.518;2023-04-24T06:04:09;1.37;;;1.27;;
7001;SDS011;3541;53.230;10.518;2023-04-24T06:06:36;2.00;;;1.40;;
7001;SDS011;3541;53.230;10.518;2023-04-24T06:09:02;1.27;;;1.10;;
7001;SDS011;3541;53.230;10.518;2023-04-24T06:11:29;2.00;;;1.30;;
7001;SDS011;3541;53.230;10.518;2023-04-24T06:13:58;1.33;;;1.23;;
7001;SDS011;3541;53.230;10.518;2023-04-24T06:16:24;1.53;;;1.30;;
7001;SDS011;3541;53.230;10.518;2023-04-24T06:18:51;1.30;;;1.20;;
7001;SDS011;3541;53.230;10.518;2023-04-24T06:21:18;1.17;;;1.10;;
7001;SDS011;3541;53.230;10.518;2023-04-24T06:23:44;1.10;;;1.10;;
7001;SDS011;3541;53.230;10.518;2023-04-24T06:26:12;1.57;;;1.40;;
7001;SDS011;3541;53.230;10.518;2023-04-24T06:28:38;2.03;;;1.53;;
7001;SDS011;3541;53.230;10.518;2023-04-24T06:31:06;2.10;;;1.47;;
7001;SDS011;3541;53.230;10.518;2023-04-24T06:33:33;1.50;;;1.40;;
7001;SDS011;3541;53.230;10.518;2023-04-24T06:35:59;1.63;;;1.37;;
7001;SDS011;3541;53.230;10.518;2023-04-24T06:38:26;2.30;;;1.60;;
7001;SDS011;3541;53.230;10.518;2023-04-24T06:40:54;2.50;;;2.30;;
7001;SDS011;3541;53.230;10.518;2023-04-24T06:43:21;1.63;;;1.40;;
7001;SDS011;3541;53.230;10.518;2023-04-24T06:45:47;1.40;;;1.30;;
7001;SDS011;3541;53.230;10.518;2023-04-24T06:48:15;1.43;;;1.30;;
7001;SDS011;3541;53.230;10.518;2023-04-24T06:50:42;1.90;;;1.40;;
7001;SDS011;3541;53.230;10.518;2023-04-24T06:53:09;1.77;;;1.33;;
7001;SDS011;3541;53.230;10.518;2023-04-24T06:55:37;1.57;;;1.40;;
7001;SDS011;3541;53.230;10.518;2023-04-24T06:58:04;1.67;;;1.20;;
7001;SDS011;3541;53.230;10.518;2023-04-24T07:00:31;2.13;;;1.60;;
7001;SDS011;3541;53.230;10.518;2023-04-24T07:02:57;1.40;;;1.30;;
7001;SDS011;3541;53.230;10.518;2023-04-24T07:05:25;1.73;;;1.20;;
7001;SDS011;3541;53.230;10.518;2023-04-24T07:07:53;1.33;;;1.23;;
7001;SDS011;3541;53.230;10.518;2023-04-24T07:10:19;1.40;;;1.30;;
7001;SDS011;3541;53.230;10.518;2023-04-24T07:12:46;2.00;;;1.30;;
7001;SDS011;3541;53.230;10.518;2023-04-24T07:15:13;1.63;;;1.50;;
7001;SDS011;3541;53.230;10.518;2023-04-24T07:17:39;1.23;;;1.13;;
7001;SDS011;3541;53.230;10.518;2023-04-24T07:20:08;1.93;;;1.40;;
7001;SDS011;3541;53.230;10.518;2023-04-24T07:22:38;1.27;;;1.17;;
7001;SDS011;3541;53.230;10.518;2023-04-24T07:25:05;2.23;;;1.10;;
7001;SDS011;3541;53.230;10.518;2023-04-24T07:27:32;1.37;;;1.27;;
7001;SDS011;3541;53.230;10.518;2023-04-24T07:30:00;1.20;;;1.10;;
7001;SDS011;3541;53.230;10.518;2023-04-24T07:32:27;1.30;;;1.20;;
7001;SDS011;3541;53.230;10.518;2023-04-24T07:34:54;2.00;;;1.37;;
7001;SDS011;3541;53.230;10.518;2023-04-24T07:37:20;1.23;;;1.13;;
7001;SDS011;3541;53.230;10.518;2023-04-24T07:39:48;1.93;;;1.37;;
7001;SDS011;3541;53.230;10.518;2023-04-24T07:42:15;3.40;;;1.37;;
7001;SDS011;3541;53.230;10.518;2023-04-24T07:44:42;1.30;;;1.20;;
7001;SDS011;3541;53.230;10.518;2023-04-24T07:47:08;1.10;;;1.10;;
7001;SDS011;3541;53.230;10.518;2023-04-24T07:49:35;1.47;;;1.13;;
7001;SDS011;3541;53.230;10.518;2023-04-24T07:52:02;1.67;;;1.30;;
7001;SDS011;3541;53.230;10.518;2023-04-24T07:54:28;1.40;;;1.20;;
7001;SDS011;3541;53.230;10.518;2023-04-24T07:56:56;1.47;;;1.10;;
7001;SDS011;3541;53.230;10.518;2023-04-24T07:59:23;1.40;;;1.30;;
7001;SDS011;3541;53.230;10.518;2023-04-24T08:01:49;1.20;;;1.10;;
7001;SDS011;3541;53.230;10.518;2023-04-24T08:04:16;2.57;;;1.33;;
7001;SDS011;3541;53.230;10.518;2023-04-24T08:06:43;1.40;;;1.30;;
7001;SDS011;3541;53.230;10.518;2023-04-24T08:09:10;2.10;;;1.33;;
7001;SDS011;3541;53.230;10.518;2023-04-24T08:11:36;1.40;;;1.30;;
7001;SDS011;3541;53.230;10.518;2023-04-24T08:14:04;1.60;;;1.50;;
7001;SDS011;3541;53.230;10.518;2023-04-24T08:16:32;2.53;;;1.23;;
7001;SDS011;3541;53.230;10.518;2023-04-24T08:18:58;3.27;;;1.50;;
7001;SDS011;3541;53.230;10.518;2023-04-24T08:21:25;1.90;;;1.57;;
7001;SDS011;3541;53.230;10.518;2023-04-24T08:23:52;1.73;;;1.63;;
7001;SDS011;3541;53.230;10.518;2023-04-24T08:26:18;1.60;;;1.50;;
7001;SDS011;3541;53.230;10.518;2023-04-24T08:28:45;2.50;;;1.60;;
7001;SDS011;3541;53.230;10.518;2023-04-24T08:31:13;2.23;;;1.53;;
7001;SDS011;3541;53.230;10.518;2023-04-24T08:33:39;2.67;;;1.80;;
7001;SDS011;3541;53.230;10.518;2023-04-24T08:36:06;1.67;;;1.57;;
7001;SDS011;3541;53.230;10.518;2023-04-24T08:38:33;2.00;;;1.67;;
7001;SDS011;3541;53.230;10.518;2023-04-24T08:41:00;3.37;;;1.80;;
7001;SDS011;3541;53.230;10.518;2023-04-24T08:43:27;2.13;;;1.90;;
7001;SDS011;3541;53.230;10.518;2023-04-24T08:45:55;1.93;;;1.70;;
7001;SDS011;3541;53.230;10.518;2023-04-24T08:48:24;2.07;;;1.90;;
7001;SDS011;3541;53.230;10.518;2023-04-24T08:50:51;4.33;;;2.10;;
7001;SDS011;3541;53.230;10.518;2023-04-24T08:53:18;2.20;;;1.97;;
7001;SDS011;3541;53.230;10.518;2023-04-24T08:55:45;1.93;;;1.83;;
7001;SDS011;3541;53.230;10.518;2023-04-24T08:58:13;4.73;;;2.50;;
7001;SDS011;3541;53.230;10.518;2023-04-24T09:00:41;3.60;;;2.30;;
7001;SDS011;3541;53.230;10.518;2023-04-24T09:03:11;7.90;;;2.73;;
7001;SDS011;3541;53.230;10.518;2023-04-24T09:05:40;3.77;;;2.37;;
7001;SDS011;3541;53.230;10.518;2023-04-24T09:08:10;2.67;;;2.40;;
7001;SDS011;3541;53.230;10.518;2023-04-24T09:10:38;3.17;;;2.87;;
7001;SDS011;3541;53.230;10.518;2023-04-24T09:13:06;2.47;;;2.10;;
7001;SDS011;3541;53.230;10.518;2023-04-24T09:15:34;3.10;;;2.80;;
7001;SDS011;3541;53.230;10.518;2023-04-24T09:18:01;3.10;;;2.80;;
7001;SDS011;3541;53.230;10.518;2023-04-24T09:20:27;3.77;;;2.73;;
7001;SDS011;3541;53.230;10.518;2023-04-24T09:22:55;4.03;;;3.07;;
7001;SDS011;3541;53.230;10.518;2023-04-24T09:25:23;2.80;;;2.58;;
7001;SDS011;3541;53.230;10.518;2023-04-24T09:27:58;3.63;;;2.90;;
7001;SDS011;3541;53.230;10.518;2023-04-24T09:30:26;2.80;;;2.60;;
7001;SDS011;3541;53.230;10.518;2023-04-24T09:35:40;3.37;;;3.07;;
7001;SDS011;3541;53.230;10.518;2023-04-24T09:38:09;4.40;;;3.40;;
7001;SDS011;3541;53.230;10.518;2023-04-24T09:40:35;6.37;;;3.60;;
7001;SDS011;3541;53.230;10.518;2023-04-24T09:43:02;4.13;;;3.47;;
7001;SDS011;3541;53.230;10.518;2023-04-24T09:45:31;5.03;;;3.90;;
7001;SDS011;3541;53.230;10.518;2023-04-24T09:48:01;4.07;;;3.60;;
7001;SDS011;3541;53.230;10.518;2023-04-24T09:50:29;4.50;;;4.10;;
7001;SDS011;3541;53.230;10.518;2023-04-24T09:52:58;5.57;;;3.73;;
7001;SDS011;3541;53.230;10.518;2023-04-24T09:55:28;5.70;;;4.07;;
7001;SDS011;3541;53.230;10.518;2023-04-24T09:57:55;4.43;;;4.03;;
7001;SDS011;3541;53.230;10.518;2023-04-24T10:00:23;4.53;;;3.90;;
7001;SDS011;3541;53.230;10.518;2023-04-24T10:02:54;5.03;;;3.73;;
7001;SDS011;3541;53.230;10.518;2023-04-24T10:05:27;4.97;;;3.97;;
7001;SDS011;3541;53.230;10.518;2023-04-24T10:07:56;4.73;;;3.63;;
7001;SDS011;3541;53.230;10.518;2023-04-24T10:10:23;4.80;;;4.07;;
7001;SDS011;3541;53.230;10.518;2023-04-24T10:12:52;4.37;;;3.70;;
7001;SDS011;3541;53.230;10.518;2023-04-24T10:15:19;4.67;;;4.07;;
7001;SDS011;3541;53.230;10.518;2023-04-24T10:17:46;5.40;;;4.33;;
7001;SDS011;3541;53.230;10.518;2023-04-24T10:20:17;4.40;;;4.00;;
7001;SDS011;3541;53.230;10.518;2023-04-24T10:22:45;5.00;;;4.20;;
7001;SDS011;3541;53.230;10.518;2023-04-24T10:25:15;4.40;;;3.93;;
7001;SDS011;3541;53.230;10.518;2023-04-24T10:27:42;5.00;;;4.00;;
7001;SDS011;3541;53.230;10.518;2023-04-24T10:30:12;4.80;;;4.30;;
7001;SDS011;3541;53.230;10.518;2023-04-24T10:32:39;5.67;;;4.83;;
7001;SDS011;3541;53.230;10.518;2023-04-24T10:35:06;6.70;;;4.73;;
7001;SDS011;3541;53.230;10.518;2023-04-24T10:37:34;5.70;;;5.00;;
7001;SDS011;3541;53.230;10.518;2023-04-24T10:40:03;10.23;;;4.87;;
7001;SDS011;3541;53.230;10.518;2023-04-24T10:42:31;5.57;;;4.50;;
7001;SDS011;3541;53.230;10.518;2023-04-24T10:44:58;6.05;;;4.65;;
7001;SDS011;3541;53.230;10.518;2023-04-24T10:47:28;5.38;;;4.50;;
7001;SDS011;3541;53.230;10.518;2023-04-24T10:49:55;6.87;;;4.60;;
7001;SDS011;3541;53.230;10.518;2023-04-24T10:52:30;5.00;;;4.50;;
7001;SDS011;3541;53.230;10.518;2023-04-24T10:55:10;5.28;;;4.53;;
7001;SDS011;3541;53.230;10.518;2023-04-24T10:57:38;5.17;;;4.27;;
7001;SDS011;3541;53.230;10.518;2023-04-24T11:00:19;7.30;;;4.80;;
7001;SDS011;3541;53.230;10.518;2023-04-24T11:02:48;5.80;;;4.35;;
7001;SDS011;3541;53.230;10.518;2023-04-24T11:05:17;5.53;;;4.53;;
7001;SDS011;3541;53.230;10.518;2023-04-24T11:10:37;5.20;;;4.68;;
7001;SDS011;3541;53.230;10.518;2023-04-24T11:13:04;4.68;;;4.00;;
7001;SDS011;3541;53.230;10.518;2023-04-24T11:15:31;5.82;;;4.45;;
7001;SDS011;3541;53.230;10.518;2023-04-24T11:17:59;5.10;;;4.10;;
7001;SDS011;3541;53.230;10.518;2023-04-24T11:20:26;4.28;;;3.80;;
7001;SDS011;3541;53.230;10.518;2023-04-24T11:22:52;3.92;;;3.55;;
7001;SDS011;3541;53.230;10.518;2023-04-24T11:25:22;4.17;;;3.30;;
7001;SDS011;3541;53.230;10.518;2023-04-24T11:27:49;4.65;;;3.40;;
7001;SDS011;3541;53.230;10.518;2023-04-24T11:30:28;5.13;;;4.00;;
7001;SDS011;3541;53.230;10.518;2023-04-24T11:32:57;4.73;;;3.83;;
7001;SDS011;3541;53.230;10.518;2023-04-24T11:35:29;3.50;;;3.13;;
7001;SDS011;3541;53.230;10.518;2023-04-24T11:38:04;3.43;;;2.90;;
7001;SDS011;3541;53.230;10.518;2023-04-24T11:40:32;3.63;;;2.75;;
7001;SDS011;3541;53.230;10.518;2023-04-24T11:42:59;3.92;;;2.97;;
7001;SDS011;3541;53.230;10.518;2023-04-24T11:45:27;3.10;;;2.78;;
7001;SDS011;3541;53.230;10.518;2023-04-24T11:47:54;3.30;;;2.50;;
7001;SDS011;3541;53.230;10.518;2023-04-24T11:50:23;4.03;;;2.42;;
7001;SDS011;3541;53.230;10.518;2023-04-24T11:52:52;3.30;;;2.63;;
7001;SDS011;3541;53.230;10.518;2023-04-24T11:55:27;3.10;;;2.70;;
7001;SDS011;3541;53.230;10.518;2023-04-24T11:57:55;4.87;;;2.87;;
7001;SDS011;3541;53.230;10.518;2023-04-24T12:00:24;3.67;;;2.80;;
7001;SDS011;3541;53.230;10.518;2023-04-24T12:03:02;2.60;;;2.40;;
7001;SDS011;3541;53.230;10.518;2023-04-24T12:05:31;3.93;;;3.10;;
7001;SDS011;3541;53.230;10.518;2023-04-24T12:07:59;4.40;;;3.03;;
7001;SDS011;3541;53.230;10.518;2023-04-24T12:10:27;3.40;;;2.90;;
7001;SDS011;3541;53.230;10.518;2023-04-24T12:12:55;3.22;;;2.92;;
7001;SDS011;3541;53.230;10.518;2023-04-24T12:15:22;3.93;;;3.00;;
7001;SDS011;3541;53.230;10.518;2023-04-24T12:17:50;3.95;;;3.00;;
7001;SDS011;3541;53.230;10.518;2023-04-24T12:20:22;5.70;;;2.87;;
7001;SDS011;3541;53.230;10.518;2023-04-24T12:22:52;2.80;;;2.50;;
7001;SDS011;3541;53.230;10.518;2023-04-24T12:25:20;3.63;;;2.80;;
7001;SDS011;3541;53.230;10.518;2023-04-24T12:27:51;3.80;;;2.60;;
7001;SDS011;3541;53.230;10.518;2023-04-24T12:30:19;2.87;;;2.60;;
7001;SDS011;3541;53.230;10.518;2023-04-24T12:32:46;4.25;;;2.70;;
7001;SDS011;3541;53.230;10.518;2023-04-24T12:35:18;2.97;;;2.67;;
7001;SDS011;3541;53.230;10.518;2023-04-24T12:37:46;3.80;;;2.60;;
7001;SDS011;3541;53.230;10.518;2023-04-24T12:40:14;3.23;;;2.93;;
7001;SDS011;3541;53.230;10.518;2023-04-24T12:42:42;5.67;;;2.90;;
7001;SDS011;3541;53.230;10.518;2023-04-24T12:45:10;3.27;;;2.43;;
7001;SDS011;3541;53.230;10.518;2023-04-24T12:47:37;3.27;;;2.87;;
7001;SDS011;3541;53.230;10.518;2023-04-24T12:50:05;3.33;;;2.77;;
7001;SDS011;3541;53.230;10.518;2023-04-24T12:52:33;3.03;;;2.73;;
7001;SDS011;3541;53.230;10.518;2023-04-24T12:55:00;3.83;;;2.60;;
7001;SDS011;3541;53.230;10.518;2023-04-24T12:57:28;4.73;;;2.30;;
7001;SDS011;3541;53.230;10.518;2023-04-24T12:59:56;2.13;;;1.93;;
7001;SDS011;3541;53.230;10.518;2023-04-24T13:02:24;2.70;;;2.50;;
7001;SDS011;3541;53.230;10.518;2023-04-24T13:04:52;2.20;;;2.00;;
7001;SDS011;3541;53.230;10.518;2023-04-24T13:07:19;1.87;;;1.67;;
7001;SDS011;3541;53.230;10.518;2023-04-24T13:09:47;2.00;;;1.90;;
7001;SDS011;3541;53.230;10.518;2023-04-24T13:12:15;2.57;;;2.10;;
7001;SDS011;3541;53.230;10.518;2023-04-24T13:14:43;2.67;;;1.83;;
7001;SDS011;3541;53.230;10.518;2023-04-24T13:17:10;2.33;;;2.13;;
7001;SDS011;3541;53.230;10.518;2023-04-24T13:19:38;2.50;;;2.30;;
7001;SDS011;3541;53.230;10.518;2023-04-24T13:22:06;1.83;;;1.60;;
7001;SDS011;3541;53.230;10.518;2023-04-24T13:24:34;2.23;;;1.70;;
7001;SDS011;3541;53.230;10.518;2023-04-24T13:27:01;3.77;;;1.80;;
7001;SDS011;3541;53.230;10.518;2023-04-24T13:29:28;2.63;;;1.40;;
7001;SDS011;3541;53.230;10.518;2023-04-24T13:31:56;2.00;;;1.83;;
7001;SDS011;3541;53.230;10.518;2023-04-24T13:34:22;2.13;;;1.73;;
7001;SDS011;3541;53.230;10.518;2023-04-24T13:36:49;2.63;;;1.90;;
7001;SDS011;3541;53.230;10.518;2023-04-24T13:39:16;1.87;;;1.57;;
7001;SDS011;3541;53.230;10.518;2023-04-24T13:41:43;2.07;;;1.70;;
7001;SDS011;3541;53.230;10.518;2023-04-24T13:44:10;1.73;;;1.60;;
7001;SDS011;3541;53.230;10.518;2023-04-24T13:46:36;1.83;;;1.73;;
7001;SDS011;3541;53.230;10.518;2023-04-24T13:49:04;2.00;;;1.60;;
7001;SDS011;3541;53.230;10.518;2023-04-24T13:51:31;2.00;;;1.60;;
7001;SDS011;3541;53.230;10.518;2023-04-24T13:53:58;1.93;;;1.70;;
7001;SDS011;3541;53.230;10.518;2023-04-24T13:56:25;3.00;;;1.50;;
7001;SDS011;3541;53.230;10.518;2023-04-24T13:58:52;2.47;;;1.80;;
7001;SDS011;3541;53.230;10.518;2023-04-24T14:01:19;2.57;;;1.77;;
7001;SDS011;3541;53.230;10.518;2023-04-24T14:03:49;2.10;;;1.80;;
7001;SDS011;3541;53.230;10.518;2023-04-24T14:06:16;2.97;;;1.73;;
7001;SDS011;3541;53.230;10.518;2023-04-24T14:08:43;2.23;;;1.87;;
7001;SDS011;3541;53.230;10.518;2023-04-24T14:11:10;1.77;;;1.67;;
7001;SDS011;3541;53.230;10.518;2023-04-24T14:13:36;2.10;;;1.83;;
7001;SDS011;3541;53.230;10.518;2023-04-24T14:16:03;2.87;;;1.70;;
7001;SDS011;3541;53.230;10.518;2023-04-24T14:18:31;2.30;;;2.00;;
7001;SDS011;3541;53.230;10.518;2023-04-24T14:20:58;3.23;;;1.80;;
7001;SDS011;3541;53.230;10.518;2023-04-24T14:23:27;2.00;;;1.80;;
7001;SDS011;3541;53.230;10.518;2023-04-24T14:25:53;2.30;;;1.80;;
7001;SDS011;3541;53.230;10.518;2023-04-24T14:28:21;2.03;;;1.80;;
7001;SDS011;3541;53.230;10.518;2023-04-24T14:30:47;1.80;;;1.70;;
7001;SDS011;3541;53.230;10.518;2023-04-24T14:33:14;2.00;;;1.90;;
7001;SDS011;3541;53.230;10.518;2023-04-24T14:35:41;1.80;;;1.70;;
7001;SDS011;3541;53.230;10.518;2023-04-24T14:38:08;1.70;;;1.60;;
7001;SDS011;3541;53.230;10.518;2023-04-24T14:40:36;1.63;;;1.53;;
7001;SDS011;3541;53.230;10.518;2023-04-24T14:43:03;2.90;;;1.97;;
7001;SDS011;3541;53.230;10.518;2023-04-24T14:45:30;1.87;;;1.73;;
7001;SDS011;3541;53.230;10.518;2023-04-24T14:47:57;1.73;;;1.63;;
7001;SDS011;3541;53.230;10.518;2023-04-24T14:50:23;1.50;;;1.40;;
7001;SDS011;3541;53.230;10.518;2023-04-24T14:52:52;2.00;;;1.20;;
7001;SDS011;3541;53.230;10.518;2023-04-24T14:55:19;1.00;;;1.00;;
7001;SDS011;3541;53.230;10.518;2023-04-24T14:57:47;0.90;;;0.90;;
7001;SDS011;3541;53.230;10.518;2023-04-24T15:00:14;0.87;;;0.87;;
7001;SDS011;3541;53.230;10.518;2023-04-24T15:02:42;1.10;;;0.87;;
7001;SDS011;3541;53.230;10.518;2023-04-24T15:05:09;1.23;;;0.90;;
7001;SDS011;3541;53.230;10.518;2023-04-24T15:07:36;1.30;;;1.00;;